Station Historical Data
Daily Summary for January 3, 2017 Units:  Metric    English   Both
« Previous Day
Next Day »
Daily Weekly Monthly Yearly Custom
  High: Low: Average:
Temperature: 6.3 °C 3.7 °C 5.5 °C
Dew Point: 5.4 °C 2.1 °C 4.2 °C
Humidity: 95% 86% 91%
Wind Speed: 9.7km/h 0km/h 1.9km/h
Wind Gust: 16.1km/h - -
Wind- - SE
Pressure: 1017.5 hPa 996.8 hPa -
Precipitation: 0 mm    
Historical Graphs
 
 
Tabular Data for January 3, 2017
Time Temperature Dew Point Pressure Wind Wind Speed Wind Gust Humidity Rainfall Rate (Hourly)
00:04 4.8 °C 2.7 °C 1017.5 hPa ESE 3.2 km/h 9.7 km/h 86% 0 mm
00:09 4.8 °C 2.6 °C 1017.2 hPa East 3.2 km/h 9.7 km/h 86% 0 mm
00:14 4.8 °C 2.6 °C 1017.2 hPa SE 4.8 km/h 8 km/h 86% 0 mm
00:19 4.8 °C 2.6 °C 1017.2 hPa SE 4.8 km/h 6.4 km/h 86% 0 mm
00:24 4.7 °C 2.6 °C 1017.2 hPa ESE 1.6 km/h 4.8 km/h 86% 0 mm
00:29 4.7 °C 2.6 °C 1017.2 hPa SE 3.2 km/h 4.8 km/h 86% 0 mm
00:34 4.7 °C 2.6 °C 1017.2 hPa SE 1.6 km/h 6.4 km/h 86% 0 mm
00:39 4.7 °C 2.6 °C 1017.5 hPa East 3.2 km/h 6.4 km/h 86% 0 mm
00:44 4.7 °C 2.6 °C 1017.5 hPa Calm   3.2 km/h 86% 0 mm
00:49 4.7 °C 2.6 °C 1017.5 hPa Calm     86% 0 mm
00:54 4.7 °C 2.6 °C 1017.2 hPa Calm     86% 0 mm
00:59 4.7 °C 2.5 °C 1017.2 hPa Calm   4.8 km/h 86% 0 mm
01:04 4.7 °C 2.5 °C 1017.2 hPa Calm   4.8 km/h 86% 0 mm
01:09 4.7 °C 2.6 °C 1017.2 hPa Calm   3.2 km/h 86% 0 mm
01:14 4.7 °C 2.7 °C 1017.2 hPa ESE 1.6 km/h 4.8 km/h 87% 0 mm
01:19 4.7 °C 2.7 °C 1017.5 hPa Calm   3.2 km/h 87% 0 mm
01:24 4.8 °C 2.8 °C 1016.8 hPa Calm     87% 0 mm
01:29 4.7 °C 2.7 °C 1016.5 hPa Calm   4.8 km/h 87% 0 mm
01:34 4.7 °C 2.7 °C 1016.5 hPa ESE 1.6 km/h 4.8 km/h 87% 0 mm
01:39 4.7 °C 2.7 °C 1016.8 hPa SE 1.6 km/h 6.4 km/h 87% 0 mm
01:44 4.7 °C 2.7 °C 1016.8 hPa Calm   3.2 km/h 87% 0 mm
01:49 4.7 °C 2.7 °C 1016.8 hPa Calm     87% 0 mm
01:54 4.6 °C 2.6 °C 1016.5 hPa Calm     87% 0 mm
01:59 4.6 °C 2.6 °C 1016.5 hPa Calm     87% 0 mm
02:04 4.6 °C 2.6 °C 1016.1 hPa Calm   4.8 km/h 87% 0 mm
02:09 4.5 °C 2.5 °C 1016.1 hPa SE 1.6 km/h 4.8 km/h 87% 0 mm
02:14 4.4 °C 2.4 °C 1016.1 hPa Calm   4.8 km/h 87% 0 mm
02:19 4.4 °C 2.6 °C 1016.1 hPa Calm   4.8 km/h 88% 0 mm
02:24 4.2 °C 2.4 °C 1016.1 hPa Calm     88% 0 mm
02:29 4.1 °C 2.4 °C 1016.1 hPa Calm     89% 0 mm
02:34 4.1 °C 2.2 °C 1015.8 hPa Calm     88% 0 mm
02:39 3.9 °C 2.3 °C 1015.8 hPa Calm     89% 0 mm
02:44 3.8 °C 2.2 °C 1016.1 hPa Calm     89% 0 mm
02:49 3.8 °C 2.1 °C 1016.1 hPa Calm     89% 0 mm
02:54 3.7 °C 2.2 °C 1015.8 hPa Calm     90% 0 mm
02:59 3.9 °C 2.4 °C 1015.5 hPa Calm     90% 0 mm
03:04 4.1 °C 2.6 °C 1015.8 hPa Calm     90% 0 mm
03:09 4.2 °C 2.7 °C 1015.8 hPa Calm     90% 0 mm
03:14 4.3 °C 2.7 °C 1015.8 hPa Calm     89% 0 mm
03:19 4.4 °C 2.8 °C 1015.8 hPa Calm     89% 0 mm
03:24 4.6 °C 2.9 °C 1015.5 hPa Calm     89% 0 mm
03:29 4.6 °C 2.7 °C 1015.5 hPa Calm     88% 0 mm
03:34 4.6 °C 2.8 °C 1015.5 hPa Calm     88% 0 mm
03:39 4.7 °C 2.9 °C 1015.5 hPa Calm     88% 0 mm
03:44 4.8 °C 2.9 °C 1015.1 hPa Calm     88% 0 mm
03:49 4.8 °C 2.9 °C 1015.1 hPa Calm     88% 0 mm
03:54 4.8 °C 3 °C 1015.1 hPa Calm     88% 0 mm
03:59 4.8 °C 3 °C 1014.8 hPa Calm     88% 0 mm
04:04 4.9 °C 3.1 °C 1014.8 hPa Calm     88% 0 mm
04:09 4.9 °C 3.1 °C 1014.8 hPa Calm     88% 0 mm
04:14 5.1 °C 3.1 °C 1014.8 hPa Calm     87% 0 mm
04:19 5.1 °C 3.1 °C 1014.8 hPa Calm     87% 0 mm
04:24 5.1 °C 3.1 °C 1014.4 hPa Calm     87% 0 mm
04:29 5.1 °C 3.1 °C 1014.4 hPa Calm     87% 0 mm
04:34 5.2 °C 3.2 °C 1014.1 hPa Calm     87% 0 mm
04:39 5.1 °C 3.3 °C 1014.1 hPa Calm     88% 0 mm
04:44 5.1 °C 3.3 °C 1014.1 hPa Calm     88% 0 mm
04:49 5.1 °C 3.4 °C 1013.8 hPa Calm     89% 0 mm
04:54 5 °C 3.3 °C 1013.8 hPa Calm     89% 0 mm
04:59 5 °C 3.3 °C 1013.8 hPa Calm     89% 0 mm
05:04 5 °C 3.3 °C 1013.8 hPa Calm     89% 0 mm
05:09 5 °C 3.3 °C 1013.4 hPa Calm     89% 0 mm
05:14 5 °C 3.3 °C 1013.4 hPa Calm     89% 0 mm
05:19 5.1 °C 3.4 °C 1013.4 hPa Calm     89% 0 mm
05:24 5.1 °C 3.4 °C 1013.4 hPa Calm     89% 0 mm
05:29 5.2 °C 3.5 °C 1013.4 hPa Calm     89% 0 mm
05:34 5.2 °C 3.5 °C 1013.1 hPa Calm     89% 0 mm
05:39 5.2 °C 3.6 °C 1013.1 hPa Calm     89% 0 mm
05:49 5.3 °C 3.6 °C 1013.1 hPa Calm     89% 0 mm
05:54 5.3 °C 3.6 °C 1013.1 hPa Calm     89% 0 mm
05:59 5.3 °C 3.6 °C 1012.8 hPa Calm     89% 0 mm
06:04 5.2 °C 3.6 °C 1012.8 hPa Calm     89% 0 mm
06:09 5.2 °C 3.6 °C 1012.8 hPa Calm     89% 0 mm
06:14 5.2 °C 3.5 °C 1012.8 hPa Calm     89% 0 mm
06:19 5.2 °C 3.5 °C 1012.4 hPa Calm     89% 0 mm
06:24 5.3 °C 3.6 °C 1012.4 hPa Calm     89% 0 mm
06:29 5.3 °C 3.7 °C 1012.4 hPa East 1.6 km/h 4.8 km/h 89% 0 mm
06:34 5.4 °C 3.7 °C 1012.4 hPa Calm   4.8 km/h 89% 0 mm
06:39 5.4 °C 3.6 °C 1012.1 hPa East 3.2 km/h 8 km/h 88% 0 mm
06:44 5.5 °C 3.7 °C 1012.1 hPa East 1.6 km/h 8 km/h 88% 0 mm
06:49 5.5 °C 3.7 °C 1012.1 hPa East 3.2 km/h 8 km/h 88% 0 mm
06:54 5.6 °C 3.7 °C 1011.7 hPa ENE 3.2 km/h 8 km/h 88% 0 mm
06:59 5.6 °C 3.7 °C 1011.7 hPa East 3.2 km/h 4.8 km/h 88% 0 mm
07:04 5.6 °C 3.7 °C 1011.7 hPa East 3.2 km/h 4.8 km/h 88% 0 mm
07:09 5.5 °C 3.7 °C 1011.7 hPa East 1.6 km/h 6.4 km/h 88% 0 mm
07:14 5.5 °C 3.7 °C 1011.4 hPa East 1.6 km/h 6.4 km/h 88% 0 mm
07:19 5.5 °C 3.7 °C 1011.4 hPa East 1.6 km/h 4.8 km/h 88% 0 mm
07:24 5.6 °C 3.7 °C 1011.4 hPa East 1.6 km/h 4.8 km/h 88% 0 mm
07:29 5.6 °C 3.7 °C 1011.1 hPa East 3.2 km/h 8 km/h 88% 0 mm
07:34 5.7 °C 3.8 °C 1011.1 hPa East 1.6 km/h 8 km/h 88% 0 mm
07:39 5.7 °C 3.8 °C 1011.1 hPa Calm   1.6 km/h 88% 0 mm
07:44 5.7 °C 3.7 °C 1011.1 hPa Calm     87% 0 mm
07:49 5.8 °C 3.8 °C 1010.7 hPa ESE 1.6 km/h 8 km/h 87% 0 mm
07:54 5.7 °C 3.7 °C 1010.7 hPa East 3.2 km/h 6.4 km/h 87% 0 mm
07:59 5.8 °C 3.8 °C 1010.7 hPa East 1.6 km/h 8 km/h 87% 0 mm
08:04 5.8 °C 3.8 °C 1010.4 hPa East 3.2 km/h 9.7 km/h 87% 0 mm
08:09 5.9 °C 3.9 °C 1010.4 hPa East 1.6 km/h 9.7 km/h 87% 0 mm
08:14 5.9 °C 3.9 °C 1010.4 hPa ESE 3.2 km/h 11.3 km/h 87% 0 mm
08:19 6 °C 3.8 °C 1010 hPa East 3.2 km/h 11.3 km/h 86% 0 mm
08:24 6.1 °C 3.9 °C 1010 hPa SSE 1.6 km/h 9.7 km/h 86% 0 mm
08:29 6.1 °C 3.9 °C 1010 hPa East 1.6 km/h 9.7 km/h 86% 0 mm
08:34 6.1 °C 3.9 °C 1010 hPa East 1.6 km/h 8 km/h 86% 0 mm
08:39 6.1 °C 3.9 °C 1010 hPa East 1.6 km/h 8 km/h 86% 0 mm
08:44 6.2 °C 4 °C 1010 hPa ENE 4.8 km/h 6.4 km/h 86% 0 mm
08:49 6.1 °C 3.9 °C 1009.7 hPa East 1.6 km/h 8 km/h 86% 0 mm
08:54 6.2 °C 4 °C 1009.7 hPa East 3.2 km/h 9.7 km/h 86% 0 mm
08:59 6.2 °C 4 °C 1009.7 hPa East 3.2 km/h 8 km/h 86% 0 mm
09:04 6.2 °C 4.1 °C 1009.7 hPa Calm   8 km/h 86% 0 mm
09:09 6.2 °C 4.1 °C 1009.7 hPa Calm   4.8 km/h 86% 0 mm
09:14 6.2 °C 4.2 °C 1009.4 hPa ESE 1.6 km/h 4.8 km/h 87% 0 mm
09:19 6.1 °C 4.1 °C 1009.4 hPa ESE 1.6 km/h 4.8 km/h 87% 0 mm
09:24 6.1 °C 4.1 °C 1009.4 hPa ESE 1.6 km/h 11.3 km/h 87% 0 mm
09:29 6.1 °C 4.3 °C 1009.4 hPa ESE 3.2 km/h 11.3 km/h 88% 0 mm
09:34 6.1 °C 4.3 °C 1009.4 hPa ESE 3.2 km/h 11.3 km/h 88% 0 mm
09:39 6.1 °C 4.3 °C 1009.4 hPa SSE 1.6 km/h 6.4 km/h 88% 0 mm
09:44 6.1 °C 4.3 °C 1009 hPa SE 1.6 km/h 6.4 km/h 88% 0 mm
09:49 6.1 °C 4.3 °C 1009 hPa Calm   6.4 km/h 88% 0 mm
09:54 6.2 °C 4.3 °C 1009 hPa Calm   8 km/h 88% 0 mm
09:59 6.1 °C 4.3 °C 1009 hPa SE 4.8 km/h 8 km/h 88% 0 mm
10:04 6.2 °C 4.3 °C 1008.7 hPa SE 3.2 km/h 8 km/h 88% 0 mm
10:09 6.2 °C 4.4 °C 1008.7 hPa SE 3.2 km/h 6.4 km/h 88% 0 mm
10:14 6.2 °C 4.6 °C 1008.7 hPa SE 3.2 km/h 6.4 km/h 89% 0.25 mm
10:19 6.2 °C 4.6 °C 1008.7 hPa SE 1.6 km/h 6.4 km/h 89% 0.25 mm
10:24 6.2 °C 4.5 °C 1008.4 hPa SE 1.6 km/h 6.4 km/h 89% 0.25 mm
10:29 6.2 °C 4.5 °C 1008.4 hPa SE 1.6 km/h 6.4 km/h 89% 0.51 mm
10:34 6.2 °C 4.7 °C 1008.4 hPa SE 1.6 km/h 6.4 km/h 90% 0.51 mm
10:39 6.1 °C 4.4 °C 1008 hPa SE 1.6 km/h 6.4 km/h 89% 0.76 mm
10:44 6.1 °C 4.6 °C 1008 hPa ESE 1.6 km/h 8 km/h 90% 0.76 mm
10:49 6.2 °C 4.7 °C 1008 hPa ESE 1.6 km/h 8 km/h 90% 1.02 mm
10:54 6.1 °C 4.6 °C 1007.7 hPa ESE 4.8 km/h 6.4 km/h 90% 1.27 mm
10:59 6.2 °C 4.8 °C 1007.7 hPa ESE 1.6 km/h 4.8 km/h 91% 1.27 mm
11:04 6.1 °C 4.8 °C 1007.7 hPa ESE 1.6 km/h 4.8 km/h 91% 1.52 mm
11:09 6.1 °C 4.8 °C 1007.3 hPa ESE 1.6 km/h 8 km/h 91% 1.52 mm
11:14 6.1 °C 4.8 °C 1007.3 hPa Calm   3.2 km/h 91% 1.52 mm
11:19 6.1 °C 4.8 °C 1007.3 hPa Calm   3.2 km/h 91% 1.78 mm
11:24 6.1 °C 4.7 °C 1007 hPa ESE 1.6 km/h 3.2 km/h 91% 2.03 mm
11:29 6.1 °C 4.8 °C 1007 hPa ESE 1.6 km/h 4.8 km/h 92% 2.03 mm
11:34 6.1 °C 4.8 °C 1007 hPa ESE 1.6 km/h 4.8 km/h 92% 2.29 mm
11:39 6.1 °C 4.9 °C 1007 hPa Calm   3.2 km/h 92% 2.54 mm
11:44 6.1 °C 4.8 °C 1006.7 hPa Calm     92% 2.79 mm
11:49 6.1 °C 4.8 °C 1006.7 hPa Calm     92% 2.54 mm
11:54 6.1 °C 4.9 °C 1006.7 hPa Calm     92% 2.54 mm
11:59 6.2 °C 4.9 °C 1006.3 hPa Calm     92% 3.05 mm
12:04 6.1 °C 4.9 °C 1006.3 hPa Calm     92% 3.05 mm
12:09 6.1 °C 4.8 °C 1006.3 hPa Calm     92% 3.05 mm
12:14 6.1 °C 4.8 °C 1006 hPa Calm     92% 3.05 mm
12:19 6.1 °C 5.1 °C 1006 hPa Calm     93% 2.79 mm
12:24 6.1 °C 5.1 °C 1005.6 hPa Calm     93% 2.79 mm
12:29 6.1 °C 5.1 °C 1005.6 hPa Calm     93% 2.79 mm
12:34 6.2 °C 5.1 °C 1005.6 hPa Calm     93% 2.54 mm
12:39 6.1 °C 5.1 °C 1005.3 hPa Calm     93% 2.29 mm
12:44 6.1 °C 5.1 °C 1005.3 hPa Calm     93% 2.29 mm
12:49 6.1 °C 5.1 °C 1005.3 hPa ENE 4.8 km/h 4.8 km/h 93% 2.29 mm
12:54 6.1 °C 5.1 °C 1005 hPa ENE 3.2 km/h 4.8 km/h 93% 2.29 mm
12:59 6.1 °C 5.1 °C 1005 hPa ENE 3.2 km/h 4.8 km/h 93% 1.78 mm
13:04 6.1 °C 5.1 °C 1005 hPa ENE 3.2 km/h 6.4 km/h 93% 1.78 mm
13:09 6.1 °C 5.2 °C 1004.6 hPa NE 3.2 km/h 4.8 km/h 94% 1.78 mm
13:14 6.1 °C 5.2 °C 1004.6 hPa Calm   8 km/h 94% 1.52 mm
13:19 6.2 °C 5.3 °C 1004.6 hPa NE 3.2 km/h 8 km/h 94% 1.78 mm
13:24 6.2 °C 5.3 °C 1004.3 hPa NE 3.2 km/h 6.4 km/h 94% 1.52 mm
13:29 6.2 °C 5.3 °C 1004.3 hPa NE 4.8 km/h 6.4 km/h 94% 1.52 mm
13:34 6.2 °C 5.3 °C 1004.3 hPa NE 3.2 km/h 6.4 km/h 94% 1.52 mm
13:39 6.2 °C 5.3 °C 1003.9 hPa NE 3.2 km/h 6.4 km/h 94% 1.52 mm
13:44 6.2 °C 5.3 °C 1003.9 hPa NE 3.2 km/h 6.4 km/h 94% 1.27 mm
13:49 6.2 °C 5.3 °C 1003.9 hPa NE 3.2 km/h 6.4 km/h 94% 1.52 mm
13:54 6.3 °C 5.4 °C 1003.9 hPa NE 3.2 km/h 4.8 km/h 94% 1.27 mm
13:59 6.3 °C 5.4 °C 1003.6 hPa NE 1.6 km/h 6.4 km/h 94% 1.27 mm
14:04 6.2 °C 5.3 °C 1003.6 hPa ENE 3.2 km/h 8 km/h 94% 1.02 mm
14:09 6.3 °C 5.4 °C 1003.6 hPa East 3.2 km/h 4.8 km/h 94% 1.27 mm
14:14 6.2 °C 5.3 °C 1003.3 hPa NE 3.2 km/h 6.4 km/h 94% 1.27 mm
14:19 6.3 °C 5.4 °C 1003.3 hPa NE 4.8 km/h 6.4 km/h 94% 1.02 mm
14:24 6.3 °C 5.4 °C 1002.9 hPa NE 3.2 km/h 6.4 km/h 94% 1.02 mm
14:29 6.2 °C 5.3 °C 1002.9 hPa NE 3.2 km/h 6.4 km/h 94% 0.76 mm
14:34 6.2 °C 5.3 °C 1002.9 hPa NE 4.8 km/h 4.8 km/h 94% 1.02 mm
14:39 6.2 °C 5.3 °C 1002.9 hPa NE 3.2 km/h 4.8 km/h 94% 0.76 mm
14:44 6.2 °C 5.3 °C 1002.9 hPa NE 1.6 km/h 4.8 km/h 94% 0.76 mm
14:49 6.2 °C 5.3 °C 1002.6 hPa NE 1.6 km/h 4.8 km/h 94% 0.51 mm
14:54 6.2 °C 5.3 °C 1002.6 hPa NE 3.2 km/h 4.8 km/h 94% 0.51 mm
14:59 6.2 °C 5.3 °C 1002.6 hPa NE 1.6 km/h 4.8 km/h 94% 0.51 mm
15:04 6.2 °C 5.3 °C 1002.6 hPa NE 1.6 km/h 4.8 km/h 94% 0.76 mm
15:09 6.2 °C 5.3 °C 1002.6 hPa Calm   4.8 km/h 94% 0.51 mm
15:14 6.2 °C 5.3 °C 1002.3 hPa NE 1.6 km/h 4.8 km/h 94% 0.51 mm
15:19 6.2 °C 5.3 °C 1002.3 hPa Calm     94% 0.76 mm
15:24 6.2 °C 5.3 °C 1002.3 hPa East 3.2 km/h 4.8 km/h 94% 0.76 mm
15:29 6.2 °C 5.3 °C 1002.3 hPa Calm   4.8 km/h 94% 1.02 mm
15:34 6.2 °C 5.3 °C 1002.3 hPa ESE 1.6 km/h 4.8 km/h 94% 0.76 mm
15:39 6.2 °C 5.3 °C 1001.9 hPa ESE 1.6 km/h 3.2 km/h 94% 0.76 mm
15:44 6.2 °C 5.3 °C 1001.9 hPa Calm   8 km/h 94% 1.02 mm
15:49 6.2 °C 5.3 °C 1001.9 hPa Calm   8 km/h 94% 1.02 mm
15:54 6.2 °C 5.3 °C 1001.9 hPa Calm   4.8 km/h 94% 1.02 mm
15:59 6.1 °C 5.2 °C 1001.9 hPa Calm   4.8 km/h 94% 1.27 mm
16:04 6.1 °C 5.2 °C 1001.9 hPa Calm   4.8 km/h 94% 1.27 mm
16:09 6.1 °C 5.2 °C 1001.6 hPa SE 3.2 km/h 6.4 km/h 94% 1.27 mm
16:14 6.1 °C 5.2 °C 1001.6 hPa ESE 3.2 km/h 4.8 km/h 94% 1.52 mm
16:19 6 °C 5.1 °C 1001.6 hPa ESE 1.6 km/h 4.8 km/h 94% 1.27 mm
16:24 6 °C 5.1 °C 1001.6 hPa Calm     94% 1.52 mm
16:29 6 °C 5.1 °C 1001.6 hPa Calm   3.2 km/h 94% 1.27 mm
16:34 5.9 °C 5.1 °C 1001.6 hPa Calm     94% 1.52 mm
16:39 5.9 °C 5.1 °C 1001.2 hPa Calm     94% 1.78 mm
16:44 5.9 °C 5 °C 1001.2 hPa Calm     94% 1.52 mm
16:49 5.8 °C 4.9 °C 1001.2 hPa Calm     94% 1.78 mm
16:54 5.8 °C 4.9 °C 1001.2 hPa Calm     94% 2.03 mm
16:59 5.8 °C 4.9 °C 1001.2 hPa Calm     94% 1.78 mm
17:04 5.8 °C 4.9 °C 1001.2 hPa Calm     94% 1.78 mm
17:09 5.8 °C 4.9 °C 1001.6 hPa Calm     94% 1.78 mm
17:14 5.7 °C 4.8 °C 1001.6 hPa Calm     94% 1.78 mm
17:19 5.7 °C 4.8 °C 1001.2 hPa Calm     94% 1.78 mm
17:24 5.7 °C 4.8 °C 1001.2 hPa Calm     94% 1.52 mm
17:29 5.7 °C 4.8 °C 1001.2 hPa Calm     94% 1.52 mm
17:34 5.7 °C 4.8 °C 1001.2 hPa Calm     94% 1.27 mm
17:39 5.7 °C 4.8 °C 1000.9 hPa Calm     94% 1.02 mm
17:44 5.7 °C 4.8 °C 1000.9 hPa Calm     94% 1.02 mm
17:49 5.7 °C 4.8 °C 1000.9 hPa Calm     94% 0.76 mm
17:54 5.7 °C 4.8 °C 1000.9 hPa Calm   4.8 km/h 94% 0.51 mm
17:59 5.7 °C 4.8 °C 1000.9 hPa SSE 1.6 km/h 4.8 km/h 94% 0.76 mm
18:04 5.7 °C 4.8 °C 1000.6 hPa SSE 1.6 km/h 4.8 km/h 94% 0.51 mm
18:09 5.7 °C 4.8 °C 1000.6 hPa SSE 1.6 km/h 3.2 km/h 94% 0.51 mm
18:14 5.6 °C 4.7 °C 1000.6 hPa Calm   4.8 km/h 94% 0.25 mm
18:19 5.6 °C 4.7 °C 1000.2 hPa SSE 1.6 km/h 4.8 km/h 94% 0.25 mm
18:24 5.6 °C 4.7 °C 1000.2 hPa SSE 1.6 km/h 4.8 km/h 94% 0.25 mm
18:29 5.6 °C 4.7 °C 1000.2 hPa SSE 4.8 km/h 4.8 km/h 94% 0.25 mm
18:34 5.6 °C 4.7 °C 1000.2 hPa SSE 1.6 km/h 6.4 km/h 94% 0.25 mm
18:39 5.5 °C 4.6 °C 1000.2 hPa South 1.6 km/h 6.4 km/h 94% 0.25 mm
18:44 5.5 °C 4.6 °C 1000.2 hPa Calm   3.2 km/h 94% 0.25 mm
18:49 5.4 °C 4.6 °C 1000.2 hPa Calm   3.2 km/h 94% 0.25 mm
18:54 5.5 °C 4.6 °C 999.9 hPa Calm     94% 0.25 mm
18:59 5.5 °C 4.6 °C 999.9 hPa Calm   3.2 km/h 94% 0 mm
19:04 5.5 °C 4.6 °C 999.9 hPa South 1.6 km/h 4.8 km/h 94% 0 mm
19:09 5.5 °C 4.6 °C 999.9 hPa South 1.6 km/h 4.8 km/h 94% 0 mm
19:14 5.5 °C 4.6 °C 999.9 hPa South 3.2 km/h 4.8 km/h 94% 0 mm
19:19 5.4 °C 4.6 °C 999.9 hPa South 3.2 km/h 4.8 km/h 94% 0 mm
19:24 5.5 °C 4.6 °C 999.9 hPa South 3.2 km/h 3.2 km/h 94% 0 mm
19:29 5.4 °C 4.6 °C 999.9 hPa South 1.6 km/h 3.2 km/h 94% 0 mm
19:34 5.4 °C 4.6 °C 999.5 hPa South 1.6 km/h 4.8 km/h 94% 0 mm
19:39 5.4 °C 4.6 °C 999.5 hPa South 1.6 km/h 4.8 km/h 94% 0 mm
19:44 5.4 °C 4.6 °C 999.5 hPa Calm   4.8 km/h 94% 0 mm
19:49 5.4 °C 4.6 °C 999.2 hPa Calm     94% 0 mm
19:54 5.4 °C 4.5 °C 999.2 hPa SW 3.2 km/h 4.8 km/h 94% 0 mm
19:59 5.4 °C 4.5 °C 999.2 hPa SSW 3.2 km/h 6.4 km/h 94% 0 mm
20:04 5.4 °C 4.6 °C 999.2 hPa SSW 3.2 km/h 6.4 km/h 94% 0 mm
20:09 5.4 °C 4.6 °C 999.2 hPa SSW 3.2 km/h 6.4 km/h 94% 0.25 mm
20:14 5.4 °C 4.6 °C 998.9 hPa SW 3.2 km/h 6.4 km/h 94% 0.25 mm
20:19 5.4 °C 4.5 °C 998.9 hPa SW 3.2 km/h 8 km/h 94% 0.25 mm
20:24 5.4 °C 4.6 °C 998.9 hPa SW 3.2 km/h 8 km/h 94% 0.25 mm
20:29 5.4 °C 4.6 °C 998.9 hPa SSW 1.6 km/h 8 km/h 94% 0.25 mm
20:34 5.4 °C 4.5 °C 998.5 hPa SW 1.6 km/h 9.7 km/h 94% 0.51 mm
20:39 5.4 °C 4.5 °C 998.5 hPa SW 6.4 km/h 6.4 km/h 94% 0.51 mm
20:44 5.3 °C 4.4 °C 998.5 hPa SW 3.2 km/h 9.7 km/h 94% 0.51 mm
20:49 5.3 °C 4.4 °C 998.5 hPa SSW 3.2 km/h 6.4 km/h 94% 0.51 mm
20:54 5.3 °C 4.4 °C 998.2 hPa WSW 4.8 km/h 6.4 km/h 94% 0.51 mm
20:59 5.3 °C 4.6 °C 998.5 hPa SSW 4.8 km/h 8 km/h 95% 0.51 mm
21:04 5.3 °C 4.6 °C 998.2 hPa WSW 4.8 km/h 8 km/h 95% 0.51 mm
21:09 5.3 °C 4.4 °C 998.2 hPa WSW 6.4 km/h 8 km/h 94% 0.25 mm
21:14 5.3 °C 4.4 °C 998.2 hPa SW 4.8 km/h 8 km/h 94% 0.25 mm
21:19 5.3 °C 4.4 °C 998.2 hPa WSW 4.8 km/h 8 km/h 94% 0.51 mm
21:24 5.2 °C 4.3 °C 998.2 hPa WSW 4.8 km/h 9.7 km/h 94% 0.51 mm
21:29 5.2 °C 4.3 °C 998.2 hPa WSW 6.4 km/h 9.7 km/h 94% 0.51 mm
21:34 5.2 °C 4.3 °C 998.2 hPa SSW 6.4 km/h 11.3 km/h 94% 0.25 mm
21:39 5.2 °C 4.3 °C 998.2 hPa WSW 4.8 km/h 11.3 km/h 94% 0.51 mm
21:44 5.2 °C 4.3 °C 997.9 hPa WSW 4.8 km/h 9.7 km/h 94% 0.51 mm
21:49 5.2 °C 4.3 °C 997.9 hPa SW 8 km/h 9.7 km/h 94% 0.51 mm
21:54 5.1 °C 4.4 °C 997.9 hPa SW 8 km/h 11.3 km/h 95% 0.51 mm
21:59 5.1 °C 4.4 °C 997.9 hPa WSW 8 km/h 9.7 km/h 95% 0.51 mm
22:04 5.1 °C 4.4 °C 997.9 hPa SW 4.8 km/h 11.3 km/h 95% 0.51 mm
22:09 5.1 °C 4.4 °C 997.9 hPa SW 6.4 km/h 12.9 km/h 95% 0.51 mm
22:14 5.1 °C 4.3 °C 997.9 hPa SW 8 km/h 11.3 km/h 95% 0.76 mm
22:19 5.1 °C 4.3 °C 997.9 hPa WSW 4.8 km/h 16.1 km/h 95% 0.51 mm
22:24 5.1 °C 4.3 °C 997.9 hPa SW 4.8 km/h 9.7 km/h 95% 0.51 mm
22:29 5.1 °C 4.3 °C 997.9 hPa SW 6.4 km/h 14.5 km/h 95% 0.51 mm
22:34 5.1 °C 4.3 °C 997.9 hPa SW 6.4 km/h 14.5 km/h 95% 0.51 mm
22:39 5.1 °C 4.3 °C 997.9 hPa West 6.4 km/h 11.3 km/h 95% 0.25 mm
22:44 5 °C 4.3 °C 997.9 hPa SW 8 km/h 14.5 km/h 95% 0.25 mm
22:49 5 °C 4.3 °C 997.9 hPa WSW 8 km/h 11.3 km/h 95% 0.25 mm
22:54 5 °C 4.3 °C 997.9 hPa WSW 6.4 km/h 11.3 km/h 95% 0.25 mm
22:59 5 °C 4.3 °C 997.9 hPa WSW 4.8 km/h 11.3 km/h 95% 0.25 mm
23:04 5 °C 4.3 °C 997.5 hPa WNW 3.2 km/h 11.3 km/h 95% 0.25 mm
23:09 5 °C 4.3 °C 997.5 hPa WSW 6.4 km/h 11.3 km/h 95% 0.25 mm
23:14 4.9 °C 4.2 °C 997.5 hPa WSW 4.8 km/h 12.9 km/h 95% 0 mm
23:19 4.9 °C 4.2 °C 997.5 hPa WSW 3.2 km/h 12.9 km/h 95% 0 mm
23:24 4.9 °C 4.2 °C 997.5 hPa WSW 4.8 km/h 11.3 km/h 95% 0 mm
23:29 4.9 °C 4.2 °C 997.5 hPa WSW 6.4 km/h 12.9 km/h 95% 0 mm
23:34 4.8 °C 4.1 °C 997.5 hPa WSW 6.4 km/h 12.9 km/h 95% 0 mm
23:39 4.8 °C 4.1 °C 997.2 hPa WSW 9.7 km/h 11.3 km/h 95% 0 mm
23:44 4.7 °C 3.9 °C 997.2 hPa WSW 6.4 km/h 11.3 km/h 95% 0 mm
23:49 4.7 °C 3.9 °C 997.2 hPa WSW 6.4 km/h 12.9 km/h 95% 0 mm
23:54 4.6 °C 3.8 °C 996.8 hPa SW 8 km/h 12.9 km/h 95% 0 mm
23:59 4.6 °C 3.9 °C 996.8 hPa WSW 4.8 km/h 9.7 km/h 95% 0 mm
Buffalo, New York, USA
Compliments of Weather Underground - 2.5 mb